Ajo, AZ

1:41 AM MST on August 21, 2014 (GMT -0700)
Casa Grande Municipal | Change Station
CLOSE
Current Station
Airport
Location: Casa Grande,
Elevation: 1463 ft
Nearby Weather Stations

Elev 1463 ft 32.95 °N, 111.77 °W | Updated 6 minutes ago

Clear
Clear
81 °F
Feels Like 80 °F
N
0
Wind Variable Wind from North

Today
High -- | Low -- °F
--% Chance of Precip.
Yesterday
High -- | Low -- °F
Precip. -- in
5:59 AM 7:09 PM
Waning Crescent, 15% visible
Pressure 29.91 in
Visibility 10.0 miles
Clouds Clear
Heat Index 80 °F
Dew Point 55 °F
Humidity 42%
Rainfall 0.00 in
Snow Depth Not available.
UV 0 out of 12
Pollen 4.30 out of 12
Air Quality Not available.
Flu Activity Not available.
METAR KCGZ 210835Z AUTO 00000KT 10SM CLR 27/13 A2991 RMK AO1

More Conditions Fewer Conditions

Pressure 29.91 in
Visibility 10.0 miles
Clouds Clear
Heat Index 80 °F
Dew Point 55 °F
Humidity 42%
Rainfall 0.00 in
Snow Depth Not available.
UV 0 out of 12
Pollen 4.30 out of 12
Air Quality Not available.
Flu Activity Not available.
METAR KCGZ 210835Z AUTO 00000KT 10SM CLR 27/13 A2991 RMK AO1

More Conditions Fewer Conditions

10-Day Weather Forecast

Almanac

Astronomy

Aug. 21, 2014 Rise Set
Actual Time 5:59 AM MST 7:09 PM MST
Civil Twilight 5:33 AM MST 7:34 PM MST
Nautical Twilight 5:03 AM MST 8:04 PM MST
Astronomical Twilight 4:32 AM MST 8:36 PM MST
Moon 2:38 AM MST 4:35 PM MST
Length of Visible Light 14h 00m
Length of Day
13h 09m
Tomorrow will be 1m 49s shorter.
Waning Crescent, 15% of the Moon is Illuminated
Today
Waning Crescent
Aug 25
New
Sep 2
First Quarter
Sep 8
Full
Sep 15
Last Quarter

Today's Extremes

State Highs State Lows

Community

WunderPhotos

Upload Photos

1,745,866 photos uploaded!

Nearby

Snow Depth

Station Depth Elevation
Workman Creek 2 in 6900 ft
Heber 0 in 7640 ft
Mormon Mountain 0 in 7500 ft
White Horse Lake 1 in 7180 ft
Wildcat 0 in 7850 ft

Earthquake Activity

City Distance Mag. Time & Date
No recent earthquake activity has been reported nearby.
Minimum magnitude displayed is 2.5.

Coastal Water Temperatures

Place Temperature
No Stations Reporting

Nearby Weather Stations